Time;durP1;ratioP1;P1;durP2;ratioP2;P2;SDS_P1;SDS_P2;PMS_P1;PMS_P2;Temp;Humidity;BMP_temperature;BMP_pressure;BME280_temperature;BME280_humidity;BME280_pressure;Samples;Min_cycle;Max_cycle;Signal;HPM_P1;HPM_P2
2022/01/25 00:08:23;;;;;;;51.58;26.98;;;;;;;;;;6249290;23;20017;-89
2022/01/25 00:31:10;;;;;;;56.10;28.20;;;;;;;;;;6247439;23;20035;-90
2022/01/25 00:33:34;;;;;;;52.55;24.85;;;;;;;;;;6246734;23;20457;-90
2022/01/25 00:36:01;;;;;;;54.28;27.83;;;;;;;;;;6221960;23;20074;-90
2022/01/25 00:38:28;;;;;;;52.03;27.63;;;;;;;;;;6222424;23;20027;-89
2022/01/25 00:40:54;;;;;;;51.03;26.35;;;;;;;;;;6221738;23;20012;-90
2022/01/25 00:43:24;;;;;;;61.97;28.02;;;;;;;;;;6221305;23;20012;-90
2022/01/25 00:45:53;;;;;;;53.22;26.30;;;;;;;;;;6221114;23;20016;-90
2022/01/25 00:48:30;;;;;;;50.10;27.38;;;;;;;;;;6221618;23;20020;-90
2022/01/25 00:51:17;;;;;;;51.83;26.30;;;;;;;;;;6248362;23;20027;-91
2022/01/25 00:56:19;;;;;;;54.60;26.20;;;;;;;;;;6246663;23;20020;-90
2022/01/25 00:58:45;;;;;;;54.42;26.80;;;;;;;;;;6222387;23;20012;-90
2022/01/25 01:01:11;;;;;;;53.97;26.00;;;;;;;;;;6222186;23;20016;-89
2022/01/25 01:03:37;;;;;;;53.50;27.13;;;;;;;;;;6247348;23;20023;-89
2022/01/25 01:06:05;;;;;;;46.95;24.20;;;;;;;;;;6223004;23;20377;-89
2022/01/25 01:08:32;;;;;;;54.10;28.23;;;;;;;;;;6221712;23;20023;-89
2022/01/25 01:11:00;;;;;;;50.75;27.05;;;;;;;;;;6246715;23;20024;-89
2022/01/25 01:32:57;;;;;;;54.95;28.45;;;;;;;;;;6245193;23;20123;-90
2022/01/25 01:40:57;;;;;;;49.13;26.23;;;;;;;;;;6159406;23;20021;-89
2022/01/25 01:43:34;;;;;;;59.20;28.70;;;;;;;;;;6158992;23;20091;-90
2022/01/25 01:48:38;;;;;;;62.95;28.10;;;;;;;;;;6159252;23;20100;-90
2022/01/25 01:51:13;;;;;;;54.92;28.73;;;;;;;;;;6134839;23;20021;-90
2022/01/25 01:53:39;;;;;;;49.17;27.05;;;;;;;;;;6134321;23;20017;-90
2022/01/25 01:56:05;;;;;;;50.83;26.38;;;;;;;;;;6158182;23;20072;-91
2022/01/25 01:58:31;;;;;;;59.20;27.15;;;;;;;;;;6134549;23;20373;-91
2022/01/25 02:00:57;;;;;;;61.45;27.42;;;;;;;;;;6134542;23;20148;-90
2022/01/25 02:03:23;;;;;;;51.90;26.42;;;;;;;;;;6159581;23;20024;-91
2022/01/25 02:05:50;;;;;;;61.85;29.60;;;;;;;;;;6158788;23;20060;-91
2022/01/25 02:08:16;;;;;;;51.20;28.30;;;;;;;;;;6134708;23;20017;-91
2022/01/25 02:10:42;;;;;;;58.30;28.25;;;;;;;;;;6159378;23;20073;-91
2022/01/25 02:13:09;;;;;;;62.25;29.20;;;;;;;;;;6134437;23;20104;-90
2022/01/25 02:15:37;;;;;;;49.03;26.83;;;;;;;;;;6198069;23;20121;-91
2022/01/25 02:23:21;;;;;;;49.67;27.25;;;;;;;;;;6245214;23;20476;-90
2022/01/25 02:25:53;;;;;;;55.13;28.27;;;;;;;;;;6170788;22;1123875;-90
2022/01/25 02:28:19;;;;;;;52.88;29.58;;;;;;;;;;6220808;23;20020;-91
2022/01/25 02:30:46;;;;;;;53.88;26.90;;;;;;;;;;6220616;23;20020;-90
2022/01/25 02:33:12;;;;;;;55.42;26.60;;;;;;;;;;6221377;23;20020;-92
2022/01/25 02:35:40;;;;;;;51.65;27.90;;;;;;;;;;6221142;23;20031;-92
2022/01/25 02:38:06;;;;;;;52.17;25.58;;;;;;;;;;6220684;23;20023;-93
2022/01/25 02:40:32;;;;;;;57.17;27.42;;;;;;;;;;6221022;23;20020;-92
2022/01/25 02:42:58;;;;;;;51.67;27.73;;;;;;;;;;6220869;23;20396;-92
2022/01/25 02:45:31;;;;;;;58.88;28.90;;;;;;;;;;6220690;23;20051;-92
2022/01/25 02:50:42;;;;;;;54.95;27.77;;;;;;;;;;6246271;23;20086;-93
2022/01/25 02:53:08;;;;;;;54.45;27.25;;;;;;;;;;6247190;23;20022;-92
2022/01/25 02:55:34;;;;;;;58.03;29.35;;;;;;;;;;6220853;23;20015;-93
2022/01/25 02:58:00;;;;;;;55.33;29.35;;;;;;;;;;6220390;23;20017;-93
2022/01/25 03:00:26;;;;;;;51.58;27.27;;;;;;;;;;6220957;23;20394;-94
2022/01/25 03:02:53;;;;;;;56.45;28.35;;;;;;;;;;6221345;23;20012;-92
2022/01/25 03:05:19;;;;;;;52.58;26.50;;;;;;;;;;6221107;23;20020;-93
2022/01/25 03:07:45;;;;;;;56.25;27.50;;;;;;;;;;6245527;23;20016;-93
2022/01/25 03:10:12;;;;;;;52.45;27.00;;;;;;;;;;6245786;23;20020;-93
2022/01/25 03:12:52;;;;;;;55.95;24.80;;;;;;;;;;6220902;23;20020;-92
2022/01/25 03:17:54;;;;;;;59.97;27.08;;;;;;;;;;6247438;23;20055;-94
2022/01/25 03:20:35;;;;;;;57.35;28.20;;;;;;;;;;6222394;23;20024;-90
2022/01/25 03:23:05;;;;;;;57.33;27.52;;;;;;;;;;6222479;23;20023;-91
2022/01/25 03:25:32;;;;;;;62.38;28.70;;;;;;;;;;6222572;23;20065;-90
2022/01/25 03:27:58;;;;;;;58.58;29.63;;;;;;;;;;6247529;23;20113;-90
2022/01/25 03:30:25;;;;;;;54.15;26.05;;;;;;;;;;6248616;23;20016;-92
2022/01/25 03:32:51;;;;;;;55.78;25.65;;;;;;;;;;6247557;23;20047;-91
2022/01/25 03:35:17;;;;;;;53.90;27.98;;;;;;;;;;6222207;23;20008;-91
2022/01/25 03:37:43;;;;;;;55.15;28.45;;;;;;;;;;6221716;23;20050;-89
2022/01/25 03:40:10;;;;;;;58.08;29.00;;;;;;;;;;6247674;23;20020;-92
2022/01/25 03:42:38;;;;;;;58.85;30.08;;;;;;;;;;6222032;23;20012;-91
2022/01/25 03:45:05;;;;;;;54.75;27.85;;;;;;;;;;6223608;23;20453;-91
2022/01/25 03:47:44;;;;;;;55.08;27.20;;;;;;;;;;6222050;23;20504;-94
2022/01/25 03:50:10;;;;;;;52.65;26.75;;;;;;;;;;6247861;23;20020;-93
2022/01/25 03:52:37;;;;;;;53.17;28.77;;;;;;;;;;6222693;23;20016;-94
2022/01/25 03:55:04;;;;;;;55.47;28.67;;;;;;;;;;6222400;23;20028;-91
2022/01/25 03:57:30;;;;;;;51.85;26.23;;;;;;;;;;6222670;23;20062;-90
2022/01/25 03:59:59;;;;;;;59.85;27.75;;;;;;;;;;6222467;23;20040;-91
2022/01/25 04:02:27;;;;;;;51.85;26.50;;;;;;;;;;6247256;23;20052;-89
2022/01/25 04:04:53;;;;;;;61.17;27.92;;;;;;;;;;6222856;23;20059;-91
2022/01/25 04:07:28;;;;;;;62.42;28.63;;;;;;;;;;6222182;23;20082;-90
2022/01/25 04:09:54;;;;;;;59.65;28.90;;;;;;;;;;6222001;23;20039;-89
2022/01/25 04:12:20;;;;;;;51.03;27.02;;;;;;;;;;6222092;23;20059;-90
2022/01/25 04:14:46;;;;;;;58.63;27.65;;;;;;;;;;6247504;23;20453;-91
2022/01/25 04:17:17;;;;;;;53.72;26.95;;;;;;;;;;6222901;23;20020;-90
2022/01/25 04:19:47;;;;;;;61.88;29.83;;;;;;;;;;6223038;23;20016;-90
2022/01/25 04:25:02;;;;;;;54.58;27.90;;;;;;;;;;6246490;23;20020;-89
2022/01/25 04:27:27;;;;;;;53.97;27.55;;;;;;;;;;6248616;23;20111;-90
2022/01/25 04:29:53;;;;;;;60.28;29.38;;;;;;;;;;6221710;23;20069;-90
2022/01/25 04:32:20;;;;;;;56.60;29.02;;;;;;;;;;6222670;23;20016;-90
2022/01/25 04:35:08;;;;;;;54.55;28.52;;;;;;;;;;6222224;23;20048;-90
2022/01/25 04:49:02;;;;;;;50.20;26.48;;;;;;;;;;6160526;23;20112;-89
2022/01/25 04:51:46;;;;;;;52.10;27.42;;;;;;;;;;6160529;23;20072;-90
2022/01/25 05:01:47;;;;;;;56.92;27.92;;;;;;;;;;6160304;23;20024;-89
2022/01/25 05:04:20;;;;;;;60.90;28.20;;;;;;;;;;6135871;23;20021;-90
2022/01/25 05:06:48;;;;;;;57.03;27.95;;;;;;;;;;6135764;23;20048;-90
2022/01/25 05:09:16;;;;;;;56.20;28.23;;;;;;;;;;6135762;23;20021;-90
2022/01/25 05:11:47;;;;;;;54.33;28.42;;;;;;;;;;6135996;23;20027;-89
2022/01/25 05:14:19;;;;;;;54.15;27.33;;;;;;;;;;6135693;23;20017;-90
2022/01/25 05:16:51;;;;;;;56.65;27.25;;;;;;;;;;6154427;23;20031;-90
2022/01/25 05:24:29;;;;;;;60.38;29.98;;;;;;;;;;6246299;23;20457;-90
2022/01/25 05:26:57;;;;;;;58.40;29.50;;;;;;;;;;6245635;23;20024;-90
2022/01/25 05:29:23;;;;;;;55.40;27.75;;;;;;;;;;6220985;23;20012;-90
2022/01/25 05:31:49;;;;;;;51.05;27.92;;;;;;;;;;6246373;23;20496;-90
2022/01/25 05:34:15;;;;;;;50.28;26.42;;;;;;;;;;6221258;23;20043;-90
2022/01/25 05:36:44;;;;;;;56.22;27.77;;;;;;;;;;6246251;23;20027;-90
2022/01/25 05:39:18;;;;;;;60.25;28.33;;;;;;;;;;6246045;23;20016;-89
2022/01/25 05:41:53;;;;;;;58.80;29.48;;;;;;;;;;6221420;23;20042;-90
2022/01/25 05:49:16;;;;;;;55.35;27.90;;;;;;;;;;6246283;23;20103;-89
2022/01/25 05:51:42;;;;;;;53.38;27.55;;;;;;;;;;6220193;23;20421;-90
2022/01/25 05:54:09;;;;;;;57.10;28.50;;;;;;;;;;6246919;23;20012;-89
2022/01/25 05:56:35;;;;;;;54.13;28.75;;;;;;;;;;6246932;23;20027;-90
2022/01/25 05:59:04;;;;;;;51.55;27.50;;;;;;;;;;6221114;23;20122;-90
2022/01/25 06:01:31;;;;;;;58.83;29.00;;;;;;;;;;6246461;23;20342;-88
2022/01/25 06:03:57;;;;;;;56.97;27.27;;;;;;;;;;6246991;23;20043;-90
2022/01/25 06:06:23;;;;;;;53.33;27.65;;;;;;;;;;6246578;23;20012;-90
2022/01/25 06:08:49;;;;;;;57.13;27.75;;;;;;;;;;6220817;23;20092;-90
2022/01/25 06:11:15;;;;;;;58.20;29.85;;;;;;;;;;6220504;23;20046;-91
2022/01/25 06:13:42;;;;;;;59.45;29.42;;;;;;;;;;6222058;23;20035;-90
2022/01/25 06:16:08;;;;;;;53.30;25.90;;;;;;;;;;6220696;23;20028;-90
2022/01/25 06:18:34;;;;;;;56.92;26.73;;;;;;;;;;6245884;23;20094;-90
2022/01/25 06:21:00;;;;;;;59.00;28.85;;;;;;;;;;6220734;23;20015;-90
2022/01/25 06:23:26;;;;;;;57.75;29.58;;;;;;;;;;6245852;23;20016;-90
2022/01/25 06:25:52;;;;;;;51.72;26.27;;;;;;;;;;6220916;23;20020;-90
2022/01/25 06:28:18;;;;;;;54.88;27.30;;;;;;;;;;6220221;23;20020;-90
2022/01/25 06:30:45;;;;;;;52.95;27.52;;;;;;;;;;6220523;23;20453;-90
2022/01/25 06:33:11;;;;;;;53.22;27.13;;;;;;;;;;6220593;23;20016;-90
2022/01/25 06:35:37;;;;;;;56.58;27.45;;;;;;;;;;6245615;23;20098;-90
2022/01/25 06:38:04;;;;;;;62.53;28.10;;;;;;;;;;6220582;23;20016;-90
2022/01/25 06:40:30;;;;;;;52.42;27.20;;;;;;;;;;6245953;23;20027;-91
2022/01/25 06:42:56;;;;;;;52.83;27.63;;;;;;;;;;6220749;23;20526;-91
2022/01/25 06:45:24;;;;;;;56.22;26.27;;;;;;;;;;6245877;23;20016;-90
2022/01/25 06:47:50;;;;;;;66.47;28.67;;;;;;;;;;6245482;23;20397;-90
2022/01/25 06:50:18;;;;;;;51.75;25.40;;;;;;;;;;6245423;23;20012;-91
2022/01/25 06:52:45;;;;;;;58.72;29.58;;;;;;;;;;6220639;23;20051;-91
2022/01/25 06:55:12;;;;;;;55.75;28.42;;;;;;;;;;6245574;23;20012;-90
2022/01/25 06:57:38;;;;;;;58.20;29.25;;;;;;;;;;6220582;23;20020;-90
2022/01/25 07:00:05;;;;;;;63.22;28.00;;;;;;;;;;6245858;23;20047;-90
2022/01/25 07:02:31;;;;;;;52.30;26.60;;;;;;;;;;6220718;23;20437;-91
2022/01/25 07:04:58;;;;;;;54.83;27.67;;;;;;;;;;6220867;23;20016;-90
2022/01/25 07:07:24;;;;;;;55.15;28.45;;;;;;;;;;6245666;23;20019;-91
2022/01/25 07:09:50;;;;;;;61.63;28.30;;;;;;;;;;6246435;23;20035;-93
2022/01/25 07:12:16;;;;;;;56.65;28.17;;;;;;;;;;6248267;23;20020;-93
2022/01/25 07:14:42;;;;;;;57.47;27.45;;;;;;;;;;6223842;23;20078;-93
2022/01/25 07:17:08;;;;;;;53.58;27.20;;;;;;;;;;6223306;23;20060;-93
2022/01/25 07:19:34;;;;;;;51.80;27.75;;;;;;;;;;6223287;23;20043;-92
2022/01/25 07:22:00;;;;;;;54.85;29.08;;;;;;;;;;6223700;23;20070;-91
2022/01/25 07:24:26;;;;;;;55.83;28.48;;;;;;;;;;6222309;23;20019;-92
2022/01/25 07:26:53;;;;;;;55.55;28.60;;;;;;;;;;6247887;23;20016;-91
2022/01/25 07:29:19;;;;;;;56.95;28.83;;;;;;;;;;6222300;23;20088;-94
2022/01/25 07:31:45;;;;;;;58.88;27.30;;;;;;;;;;6222069;23;20039;-91
2022/01/25 07:34:11;;;;;;;69.53;32.00;;;;;;;;;;6247765;23;20099;-93
2022/01/25 07:36:39;;;;;;;57.67;27.15;;;;;;;;;;6249203;23;20016;-94
2022/01/25 07:39:05;;;;;;;56.15;28.73;;;;;;;;;;6249062;22;20020;-89
2022/01/25 07:41:32;;;;;;;54.78;29.25;;;;;;;;;;6220710;23;20020;-89
2022/01/25 07:43:59;;;;;;;59.33;27.63;;;;;;;;;;6221260;23;20051;-89
2022/01/25 07:46:26;;;;;;;65.15;30.67;;;;;;;;;;6220839;23;20016;-90
2022/01/25 07:48:52;;;;;;;53.08;27.63;;;;;;;;;;6221164;23;20012;-90
2022/01/25 07:51:18;;;;;;;60.55;27.83;;;;;;;;;;6222769;23;20067;-90
2022/01/25 07:53:45;;;;;;;67.43;31.05;;;;;;;;;;6222091;23;20019;-90
2022/01/25 07:56:11;;;;;;;59.53;30.10;;;;;;;;;;6220734;23;20052;-89
2022/01/25 07:58:37;;;;;;;72.43;30.80;;;;;;;;;;6221972;23;20318;-89
2022/01/25 08:01:04;;;;;;;65.60;30.40;;;;;;;;;;6220919;23;20350;-90
2022/01/25 08:03:30;;;;;;;65.05;30.65;;;;;;;;;;6222297;23;20003;-89
2022/01/25 08:05:56;;;;;;;60.58;30.17;;;;;;;;;;6223328;23;20103;-89
2022/01/25 08:08:22;;;;;;;56.70;27.77;;;;;;;;;;6222557;23;20016;-90
2022/01/25 08:10:49;;;;;;;64.22;29.23;;;;;;;;;;6246575;23;20027;-89
2022/01/25 08:13:15;;;;;;;64.18;29.67;;;;;;;;;;6223037;23;20056;-90
2022/01/25 08:15:41;;;;;;;65.25;30.48;;;;;;;;;;6223634;23;20015;-90
2022/01/25 08:18:07;;;;;;;60.15;28.90;;;;;;;;;;6223601;23;20105;-89
2022/01/25 08:20:33;;;;;;;60.97;28.95;;;;;;;;;;6248480;23;20488;-90
2022/01/25 08:23:00;;;;;;;57.75;28.00;;;;;;;;;;6247673;23;20453;-89
2022/01/25 08:25:26;;;;;;;54.90;28.42;;;;;;;;;;6248480;23;20016;-90
2022/01/25 08:27:52;;;;;;;62.20;28.88;;;;;;;;;;6247562;23;20020;-89
2022/01/25 08:30:18;;;;;;;58.78;30.30;;;;;;;;;;6222056;23;20102;-90
2022/01/25 08:32:44;;;;;;;62.88;30.67;;;;;;;;;;6222526;23;20023;-91
2022/01/25 08:35:10;;;;;;;60.97;29.90;;;;;;;;;;6246989;23;20028;-90
2022/01/25 08:37:37;;;;;;;62.60;28.55;;;;;;;;;;6221739;23;20016;-91
2022/01/25 08:40:04;;;;;;;61.47;29.58;;;;;;;;;;6247224;23;20017;-90
2022/01/25 08:42:30;;;;;;;63.55;29.98;;;;;;;;;;6247331;23;20352;-91
2022/01/25 08:44:56;;;;;;;59.50;28.52;;;;;;;;;;6222058;23;20038;-90
2022/01/25 08:47:22;;;;;;;62.53;28.83;;;;;;;;;;6221962;23;20024;-90
2022/01/25 08:49:51;;;;;;;62.78;30.00;;;;;;;;;;6220974;23;20020;-90
2022/01/25 08:52:17;;;;;;;63.65;28.55;;;;;;;;;;6221504;23;20023;-91
2022/01/25 08:54:43;;;;;;;58.33;27.83;;;;;;;;;;6221650;23;20013;-90
2022/01/25 08:57:09;;;;;;;57.85;28.35;;;;;;;;;;6223216;23;20020;-89
2022/01/25 08:59:35;;;;;;;63.00;29.23;;;;;;;;;;6246881;23;20016;-90
2022/01/25 09:02:01;;;;;;;64.35;31.17;;;;;;;;;;6248475;23;20018;-90
2022/01/25 09:04:28;;;;;;;63.65;29.63;;;;;;;;;;6247860;23;20023;-89
2022/01/25 09:06:54;;;;;;;62.42;29.10;;;;;;;;;;6247183;23;20453;-90
2022/01/25 09:09:20;;;;;;;61.25;27.90;;;;;;;;;;6221639;23;20028;-90
2022/01/25 09:11:47;;;;;;;59.70;31.50;;;;;;;;;;6247002;23;20043;-91
2022/01/25 09:14:13;;;;;;;61.78;30.20;;;;;;;;;;6247936;23;20480;-90
2022/01/25 09:16:39;;;;;;;60.65;30.38;;;;;;;;;;6223499;23;20012;-90
2022/01/25 09:19:06;;;;;;;53.88;27.85;;;;;;;;;;6223002;23;20043;-90
2022/01/25 09:21:32;;;;;;;62.72;29.77;;;;;;;;;;6224018;23;20012;-89
2022/01/25 09:23:58;;;;;;;57.90;30.27;;;;;;;;;;6247831;23;20020;-90
2022/01/25 09:26:25;;;;;;;62.72;29.55;;;;;;;;;;6222598;23;20020;-91
2022/01/25 09:28:54;;;;;;;62.15;28.75;;;;;;;;;;6246962;23;20044;-90
2022/01/25 09:31:20;;;;;;;63.17;29.05;;;;;;;;;;6247936;23;20024;-91
2022/01/25 09:33:46;;;;;;;62.10;29.65;;;;;;;;;;6222768;23;20035;-92
2022/01/25 09:36:12;;;;;;;58.60;27.90;;;;;;;;;;6248832;23;20372;-90
2022/01/25 09:38:38;;;;;;;60.90;29.20;;;;;;;;;;6247838;23;20474;-90
2022/01/25 09:41:05;;;;;;;61.72;30.27;;;;;;;;;;6246935;23;20154;-90
2022/01/25 09:43:31;;;;;;;57.17;29.75;;;;;;;;;;6246722;23;20016;-90
2022/01/25 09:45:57;;;;;;;57.08;29.88;;;;;;;;;;6222340;23;20016;-90
2022/01/25 09:48:23;;;;;;;61.15;30.20;;;;;;;;;;6220962;23;20016;-89
2022/01/25 09:50:50;;;;;;;65.88;30.33;;;;;;;;;;6221538;23;20020;-90
2022/01/25 09:53:17;;;;;;;61.17;29.23;;;;;;;;;;6221785;23;20016;-92
2022/01/25 09:55:44;;;;;;;58.95;30.30;;;;;;;;;;6222802;23;20453;-90
2022/01/25 09:58:12;;;;;;;63.83;30.70;;;;;;;;;;6225066;23;20016;-90
2022/01/25 10:00:39;;;;;;;65.13;29.52;;;;;;;;;;6222563;23;20069;-89
2022/01/25 10:03:24;;;;;;;65.35;31.38;;;;;;;;;;6222597;23;20020;-90
2022/01/25 10:05:51;;;;;;;67.20;30.55;;;;;;;;;;6223717;23;20091;-89
2022/01/25 10:08:20;;;;;;;60.28;29.88;;;;;;;;;;6224810;23;20023;-90
2022/01/25 10:10:54;;;;;;;68.30;29.60;;;;;;;;;;6224494;23;20023;-90
2022/01/25 10:13:25;;;;;;;61.75;30.02;;;;;;;;;;6224545;23;20099;-92
2022/01/25 10:15:57;;;;;;;70.07;31.45;;;;;;;;;;6249252;23;20336;-90
2022/01/25 10:18:23;;;;;;;67.55;30.10;;;;;;;;;;6225920;23;20316;-91
2022/01/25 10:20:51;;;;;;;67.60;31.00;;;;;;;;;;6224511;23;20017;-92
2022/01/25 10:23:24;;;;;;;63.33;31.35;;;;;;;;;;6249820;23;20016;-92
2022/01/25 10:25:52;;;;;;;61.58;29.00;;;;;;;;;;6224443;23;20020;-91
2022/01/25 10:28:38;;;;;;;63.13;29.83;;;;;;;;;;6251852;23;20027;-90
2022/01/25 10:31:07;;;;;;;66.65;30.98;;;;;;;;;;6224635;23;20020;-91
2022/01/25 10:33:47;;;;;;;66.15;30.92;;;;;;;;;;6250686;23;20446;-92
2022/01/25 10:36:22;;;;;;;58.28;29.30;;;;;;;;;;6225123;23;20020;-91
2022/01/25 10:38:52;;;;;;;60.72;29.42;;;;;;;;;;6251386;23;20020;-92
2022/01/25 10:41:26;;;;;;;60.72;29.02;;;;;;;;;;6250642;23;20026;-90
2022/01/25 10:43:52;;;;;;;;;;;;;;;;;;6225874;23;20013;-90
2022/01/25 10:46:19;;;;;;;68.13;29.90;;;;;;;;;;6249274;23;19962;-90
2022/01/25 10:48:48;;;;;;;63.22;28.65;;;;;;;;;;6224065;23;20077;-91
2022/01/25 10:51:16;;;;;;;58.05;31.20;;;;;;;;;;6251253;23;20020;-90
2022/01/25 10:53:45;;;;;;;69.90;32.15;;;;;;;;;;6225522;23;20016;-91
2022/01/25 10:56:13;;;;;;;70.97;30.05;;;;;;;;;;6225073;23;20016;-90
2022/01/25 10:58:41;;;;;;;68.30;29.63;;;;;;;;;;6251163;23;20012;-91
2022/01/25 11:01:10;;;;;;;65.80;31.13;;;;;;;;;;6251758;23;20034;-91
2022/01/25 11:03:42;;;;;;;59.80;30.58;;;;;;;;;;6224777;23;20012;-90
2022/01/25 11:06:11;;;;;;;67.57;31.30;;;;;;;;;;6249624;23;20031;-91
2022/01/25 11:08:39;;;;;;;64.68;31.63;;;;;;;;;;6225786;23;20430;-90
2022/01/25 11:11:11;;;;;;;63.17;31.02;;;;;;;;;;6250292;23;20070;-90
2022/01/25 11:13:40;;;;;;;65.70;29.83;;;;;;;;;;6225992;23;20039;-91
2022/01/25 11:16:08;;;;;;;71.65;31.52;;;;;;;;;;6247513;23;20020;-91
2022/01/25 11:18:34;;;;;;;69.75;29.83;;;;;;;;;;6247092;23;20082;-90
2022/01/25 11:21:01;;;;;;;60.75;29.13;;;;;;;;;;6220915;23;20016;-91
2022/01/25 11:23:31;;;;;;;59.50;31.95;;;;;;;;;;6246764;23;20070;-90
2022/01/25 11:25:57;;;;;;;58.63;29.40;;;;;;;;;;6220344;23;20027;-89
2022/01/25 11:28:23;;;;;;;55.65;28.67;;;;;;;;;;6245902;23;20055;-90
2022/01/25 11:30:51;;;;;;;60.63;30.33;;;;;;;;;;6245179;23;20095;-91
2022/01/25 11:33:19;;;;;;;68.85;32.78;;;;;;;;;;6245974;23;20016;-91
2022/01/25 11:35:45;;;;;;;59.90;30.17;;;;;;;;;;6245932;23;20016;-91
2022/01/25 11:38:12;;;;;;;62.85;30.88;;;;;;;;;;6221615;23;20016;-91
2022/01/25 11:40:46;;;;;;;57.83;29.38;;;;;;;;;;6247780;23;20454;-90
2022/01/25 11:43:13;;;;;;;71.95;32.00;;;;;;;;;;6222218;23;20012;-91
2022/01/25 11:45:49;;;;;;;68.03;30.80;;;;;;;;;;6247447;23;20051;-89
2022/01/25 11:48:19;;;;;;;66.82;30.67;;;;;;;;;;6222101;23;20019;-90
2022/01/25 11:50:45;;;;;;;62.25;30.85;;;;;;;;;;6223162;23;20047;-90
2022/01/25 11:53:15;;;;;;;63.38;29.65;;;;;;;;;;6221822;23;20016;-90
2022/01/25 11:55:49;;;;;;;63.80;31.77;;;;;;;;;;6221628;23;20016;-90
2022/01/25 11:58:16;;;;;;;59.22;30.15;;;;;;;;;;6221407;23;20323;-90
2022/01/25 12:00:47;;;;;;;68.40;30.67;;;;;;;;;;6247409;23;20020;-91
2022/01/25 12:03:31;;;;;;;64.75;32.40;;;;;;;;;;6222107;23;20327;-90
2022/01/25 12:06:13;;;;;;;62.35;31.48;;;;;;;;;;6222208;23;20027;-90
2022/01/25 12:11:37;;;;;;;62.03;32.38;;;;;;;;;;6246788;22;20096;-91
2022/01/25 12:14:14;;;;;;;64.13;30.25;;;;;;;;;;6223431;23;20376;-90
2022/01/25 12:16:44;;;;;;;63.75;29.33;;;;;;;;;;6248413;23;20291;-90
2022/01/25 12:19:12;;;;;;;62.80;31.52;;;;;;;;;;6222018;23;20020;-89
2022/01/25 12:21:52;;;;;;;54.53;29.80;;;;;;;;;;6246655;23;20022;-90
2022/01/25 12:24:26;;;;;;;69.55;30.90;;;;;;;;;;6246496;23;20024;-92
2022/01/25 12:27:24;;;;;;;58.13;29.80;;;;;;;;;;6221350;23;20020;-91
2022/01/25 12:30:28;;;;;;;69.63;30.38;;;4.60;99.90;;;;;;6222832;23;20024;-91
2022/01/25 12:32:58;;;;;;;74.40;29.73;;;;;;;;;;6224544;23;20023;-89
2022/01/25 12:35:37;;;;;;;69.18;29.95;;;;;;;;;;6223698;23;20016;-89
2022/01/25 12:38:04;;;;;;;59.25;27.75;;;;;;;;;;6223109;23;20020;-91
2022/01/25 12:40:32;;;;;;;63.05;29.05;;;;;;;;;;6223737;23;20388;-91
2022/01/25 12:43:02;;;;;;;57.65;30.60;;;;;;;;;;6248153;23;20015;-90
2022/01/25 12:45:30;;;;;;;60.13;29.25;;;;;;;;;;6222939;23;20030;-90
2022/01/25 12:48:07;;;;;;;62.00;29.80;;;;;;;;;;6223131;23;20024;-91
2022/01/25 12:50:35;;;;;;;61.17;29.42;;;;;;;;;;6223319;23;20027;-90
2022/01/25 12:53:03;;;;;;;59.58;28.58;;;;;;;;;;6222898;23;20453;-89
2022/01/25 12:55:30;;;;;;;58.45;30.63;;;;;;;;;;6249412;23;20341;-89
2022/01/25 12:57:56;;;;;;;60.17;29.25;;;;;;;;;;6222616;23;20023;-90
2022/01/25 13:00:28;;;;;;;63.05;29.15;;;;;;;;;;6222506;23;20059;-89
2022/01/25 13:03:09;;;;;;;63.63;30.02;;;;;;;;;;6248274;23;20091;-91
2022/01/25 13:05:40;;;;;;;62.30;30.77;;;;;;;;;;6223887;23;20019;-90
2022/01/25 13:08:17;;;;;;;59.78;29.25;;;;;;;;;;6223718;23;20087;-91
2022/01/25 13:10:43;;;;;;;62.38;30.23;;;;;;;;;;6224008;23;20319;-91
2022/01/25 13:13:21;;;;;;;67.88;32.42;;;;;;;;;;6248104;23;20023;-91
2022/01/25 13:18:14;;;;;;;71.75;33.20;;;;;;;;;;6249196;23;20098;-91
2022/01/25 13:20:42;;;;;;;62.53;30.90;;;;;;;;;;6248563;23;20012;-90
2022/01/25 13:23:14;;;;;;;59.38;29.95;;;;;;;;;;6224484;23;20314;-92
2022/01/25 13:32:21;;;;;;;68.35;29.33;;;;;;;;;;6104354;23;20022;-92
2022/01/25 13:35:32;;;;;;;52.50;27.40;;;;;;;;;;6081116;23;20080;-92
2022/01/25 13:41:42;;;;;;;69.63;30.63;;;;;;;;;;6074765;23;20023;-94
2022/01/25 13:46:38;;;;;;;61.08;29.52;;;;;;;;;;6073985;23;20022;-92
2022/01/25 13:49:28;;;;;;;67.82;29.92;;;;;;;;;;6074627;23;20033;-93
2022/01/25 13:52:06;;;;;;;62.88;30.75;;;;;;;;;;5988817;23;20027;-92
2022/01/25 13:54:35;;;;;;;59.53;28.42;;;;;;;;;;5989346;23;20104;-91
2022/01/25 13:57:10;;;;;;;69.00;30.42;;;;;;;;;;5989129;23;20055;-92
2022/01/25 13:59:36;;;;;;;58.53;28.90;;;;;;;;;;5989799;23;20111;-90
2022/01/25 14:02:03;;;;;;;64.60;31.30;;;;;;;;;;5994672;23;20106;-91
2022/01/25 14:04:30;;;;;;;67.47;31.63;;;;;;;;;;6040806;23;20019;-90
2022/01/25 14:06:58;;;;;;;61.22;29.15;;;;;;;;;;6063394;23;20520;-90
2022/01/25 14:09:30;;;;;;;49.03;27.98;;;;;;;;;;6070589;23;20022;-92
2022/01/25 14:25:40;;;;;;;65.18;28.63;;;;;;;;;;6103033;23;20400;-91
2022/01/25 14:31:42;;;;;;;63.17;29.63;;;;;;;;;;6073849;23;20029;-93
2022/01/25 14:34:13;;;;;;;64.88;30.90;;;;;;;;;;6074577;23;20053;-93
2022/01/25 14:36:43;;;;;;;57.92;29.65;;;;;;;;;;6049947;23;20058;-93
2022/01/25 14:42:25;;;;;;;60.75;27.40;;;;;;;;;;6072437;23;20062;-94
2022/01/25 14:44:51;;;;;;;60.28;30.13;;;;;;;;;;6050793;23;20109;-93
2022/01/25 14:47:21;;;;;;;65.30;30.15;;;;;;;;;;6074885;23;20034;-94
2022/01/25 14:49:50;;;;;;;69.22;32.40;;;;;;;;;;6050708;23;20372;-93
2022/01/25 14:52:28;;;;;;;64.47;31.00;;;;;;;;;;6049977;23;20071;-93
2022/01/25 14:55:02;;;;;;;76.18;30.80;;;;;;;;;;6074427;23;20015;-92
2022/01/25 14:57:40;;;;;;;66.40;31.05;;;;;;;;;;6050025;23;20057;-91
2022/01/25 15:00:07;;;;;;;65.53;30.65;;;;;;;;;;6074697;23;20088;-90
2022/01/25 15:02:33;;;;;;;69.63;31.30;;;;;;;;;;6049783;23;20495;-91
2022/01/25 15:05:02;;;;;;;75.32;29.15;;;;;;;;;;6050009;23;20409;-91
2022/01/25 15:07:32;;;;;;;66.20;31.52;;;;;;;;;;6090166;23;20026;-90
2022/01/25 15:10:00;;;;;;;69.93;31.95;;;;;;;;;;6222308;23;20078;-91
2022/01/25 15:12:40;;;;;;;71.13;33.17;;;;;;;;;;6224048;23;20381;-91
2022/01/25 15:18:07;;;;;;;70.43;31.75;;;;;;;;;;6249399;23;20051;-90
2022/01/25 15:20:34;;;;;;;69.18;30.65;;;;;;;;;;6225096;23;20020;-91
2022/01/25 15:23:02;;;;;;;61.67;30.75;;;;;;;;;;6224765;23;20027;-91
2022/01/25 15:25:29;;;;;;;66.50;31.30;;;;;;;;;;6225058;23;20020;-91
2022/01/25 15:27:59;;;;;;;78.65;31.45;;;;;;;;;;6247595;23;20031;-92
2022/01/25 15:30:31;;;;;;;62.33;30.75;;;;;;;;;;6250085;23;20102;-92
2022/01/25 15:33:00;;;;;;;57.30;28.20;;;;;;;;;;6225330;23;20094;-91
2022/01/25 15:35:31;;;;;;;66.88;31.83;;;;;;;;;;6223988;23;20073;-91
2022/01/25 15:38:00;;;;;;;68.65;30.10;;;;;;;;;;6224367;23;20016;-91
2022/01/25 15:40:34;;;;;;;67.50;31.98;;;;;;;;;;6224348;23;20357;-91
2022/01/25 15:43:02;;;;;;;69.13;30.05;;;;;;;;;;6223517;23;20070;-91
2022/01/25 15:45:31;;;;;;;66.13;32.15;;;;;;;;;;6224893;23;20016;-91
2022/01/25 15:47:58;;;;;;;62.00;27.48;;;;;;;;;;6224099;23;20023;-91
2022/01/25 15:50:30;;;;;;;62.78;30.38;;;;;;;;;;6224806;23;20012;-91
2022/01/25 15:53:03;;;;;;;66.30;32.30;;;;;;;;;;6249275;23;20449;-91
2022/01/25 15:55:29;;;;;;;61.92;30.13;;;;;;;;;;6248929;23;20059;-91
2022/01/25 15:57:58;;;;;;;68.40;30.00;;;;;;;;;;6227111;23;20030;-91
2022/01/25 16:00:46;;;;;;;70.57;33.42;;;;;;;;;;6224541;23;20026;-91
2022/01/25 16:03:15;;;;;;;64.00;29.40;;;;;;;;;;6223398;23;20023;-91
2022/01/25 16:05:45;;;;;;;60.92;28.45;;;;;;;;;;6222612;23;20513;-91
2022/01/25 16:08:19;;;;;;;64.25;29.42;;;;;;;;;;6246636;23;20017;-92
2022/01/25 16:10:54;;;;;;;70.80;31.88;;;;;;;;;;6223558;23;20031;-91
2022/01/25 16:13:21;;;;;;;62.88;32.45;;;;;;;;;;6220368;23;20020;-90
2022/01/25 16:15:53;;;;;;;69.20;30.60;;;;;;;;;;6246322;23;20162;-92
2022/01/25 16:18:22;;;;;;;69.18;31.45;;;;;;;;;;6223280;23;20016;-92
2022/01/25 16:20:54;;;;;;;67.15;30.17;;;;;;;;;;6220736;23;20022;-92
2022/01/25 16:23:23;;;;;;;69.60;30.88;;;;;;;;;;6246326;23;20066;-92
2022/01/25 16:27:06;;;;;;;;;;;;;;;;;;;;;
2022/01/25 16:29:49;;;;;;;68.65;30.70;;;;;;;;;;6240959;23;20089;-95
2022/01/25 17:01:27;;;;;;;66.57;32.83;;;;;;;;;;6012132;23;20640;-94
2022/01/25 21:32:30;;;;;;;71.40;27.95;;;;;;;;;;6309593;22;20023;-92
2022/01/25 21:34:58;;;;;;;81.38;31.20;;;;;;;;;;6256674;22;20480;-92
2022/01/25 21:37:25;;;;;;;73.93;28.85;;;;;;;;;;6256164;22;20467;-91
2022/01/25 21:39:56;;;;;;;73.70;28.38;;;;;;;;;;6227323;22;20028;-94
2022/01/25 21:42:25;;;;;;;76.03;28.63;;;;;;;;;;6252056;22;20042;-94
2022/01/25 21:44:57;;;;;;;71.13;29.30;;;;;;;;;;6227218;22;20075;-91
2022/01/25 21:47:25;;;;;;;77.28;32.58;;;;;;;;;;6226019;22;20019;-91
2022/01/25 21:49:57;;;;;;;70.60;28.05;;;;;;;;;;6226184;22;20015;-90